createdAt,value
2019-05-19T00:01:23.126Z,29.57
2019-05-19T00:03:52.453Z,28.42
2019-05-19T00:06:22.087Z,31.15
2019-05-19T00:08:52.742Z,31.48
2019-05-19T00:11:22.068Z,32.98
2019-05-19T00:13:53.023Z,33.38
2019-05-19T00:16:22.438Z,34.75
2019-05-19T00:18:52.070Z,36.45
2019-05-19T00:21:21.396Z,39.08
2019-05-19T00:23:50.735Z,39.50
2019-05-19T00:26:20.307Z,39.83
2019-05-19T00:28:49.644Z,36.33
2019-05-19T00:31:19.950Z,38.25
2019-05-19T00:33:49.592Z,38.17
2019-05-19T00:36:19.692Z,38.75
2019-05-19T00:38:58.926Z,38.13
2019-05-19T00:41:28.594Z,38.40
2019-05-19T00:44:00.789Z,38.25
2019-05-19T00:46:42.186Z,37.60
2019-05-19T00:49:17.064Z,37.67
2019-05-19T00:51:46.580Z,37.73
2019-05-19T00:54:15.956Z,37.90
2019-05-19T00:56:45.631Z,37.95
2019-05-19T00:59:15.491Z,36.95
2019-05-19T01:01:46.213Z,36.53
2019-05-19T01:04:15.577Z,38.70
2019-05-19T01:07:36.396Z,38.58
2019-05-19T01:15:38.754Z,39.38
2019-05-19T01:18:20.890Z,41.63
2019-05-19T01:20:55.989Z,41.98
2019-05-19T01:23:34.979Z,42.33
2019-05-19T01:26:19.731Z,43.50
2019-05-19T01:29:06.675Z,45.98
2019-05-19T01:31:47.471Z,46.68
2019-05-19T01:34:23.457Z,48.13
2019-05-19T01:37:03.995Z,47.85
2019-05-19T01:39:40.967Z,47.58
2019-05-19T01:42:32.310Z,44.75
2019-05-19T01:45:05.223Z,47.88
2019-05-19T01:47:47.634Z,49.60
2019-05-19T01:50:22.182Z,46.28
2019-05-19T01:52:52.128Z,49.60
2019-05-19T01:55:25.086Z,51.40
2019-05-19T01:57:57.473Z,48.55
2019-05-19T02:00:40.280Z,46.45
2019-05-19T02:06:20.054Z,49.08
2019-05-19T02:22:20.499Z,50.12
2019-05-19T02:25:06.585Z,52.98
2019-05-19T02:28:23.106Z,52.25
2019-05-19T02:30:28.177Z,55.43
2019-05-19T02:37:09.319Z,56.13
2019-05-19T02:40:02.028Z,55.67
2019-05-19T02:43:05.676Z,56.60
2019-05-19T02:45:59.668Z,56.77
2019-05-19T02:51:54.320Z,56.55
2019-05-19T02:54:28.039Z,59.55
2019-05-19T02:56:58.370Z,62.60
2019-05-19T02:59:29.262Z,64.75
2019-05-19T03:02:03.889Z,65.57
2019-05-19T03:04:35.450Z,68.00
2019-05-19T03:10:24.112Z,68.05
2019-05-19T03:13:06.985Z,68.85
2019-05-19T03:15:45.302Z,67.00
2019-05-19T03:18:18.006Z,69.32
2019-05-19T03:21:08.076Z,66.87
2019-05-19T03:23:23.857Z,66.72
2019-05-19T03:25:53.761Z,69.45
2019-05-19T03:28:24.831Z,66.28
2019-05-19T03:31:18.538Z,64.45
2019-05-19T03:34:04.501Z,64.03
2019-05-19T03:36:54.398Z,64.05
2019-05-19T03:39:18.327Z,69.42
2019-05-19T03:41:50.941Z,68.17
2019-05-19T03:44:20.872Z,69.85
2019-05-19T03:46:50.992Z,71.30
2019-05-19T03:49:20.723Z,72.97
2019-05-19T03:51:50.588Z,74.07
2019-05-19T03:54:20.971Z,74.80
2019-05-19T03:56:50.822Z,73.87
2019-05-19T03:59:20.870Z,72.37
2019-05-19T04:01:50.824Z,71.65
2019-05-19T04:04:24.218Z,72.12
2019-05-19T04:06:54.685Z,68.05
2019-05-19T04:09:26.198Z,70.55
2019-05-19T04:11:56.051Z,66.60
2019-05-19T04:14:32.072Z,57.25
2019-05-19T04:17:18.288Z,61.20
2019-05-19T04:19:53.403Z,58.15
2019-05-19T04:25:25.509Z,56.58
2019-05-19T04:28:14.656Z,57.80
2019-05-19T04:30:56.472Z,58.50
2019-05-19T04:33:39.531Z,56.68
2019-05-19T04:36:16.543Z,53.55
2019-05-19T04:38:46.475Z,53.65
2019-05-19T04:41:20.391Z,54.33
2019-05-19T04:43:55.339Z,52.38
2019-05-19T04:46:24.987Z,53.78
2019-05-19T04:48:58.517Z,50.08
2019-05-19T04:51:28.875Z,47.03
2019-05-19T04:54:00.350Z,44.03
2019-05-19T04:56:30.190Z,46.33
2019-05-19T04:59:00.020Z,44.00
2019-05-19T05:01:29.490Z,45.05
2019-05-19T05:03:59.876Z,45.03
2019-05-19T05:06:29.585Z,45.83
2019-05-19T05:08:59.276Z,44.83
2019-05-19T05:11:28.754Z,42.93
2019-05-19T05:13:58.591Z,41.73
2019-05-19T05:16:28.327Z,43.33
2019-05-19T05:18:58.228Z,43.00
2019-05-19T05:21:27.706Z,40.92
2019-05-19T05:23:57.383Z,42.73
2019-05-19T05:26:26.849Z,41.08
2019-05-19T05:28:56.256Z,40.83
2019-05-19T05:31:25.951Z,42.33
2019-05-19T05:33:56.882Z,42.08
2019-05-19T05:36:27.806Z,41.15
2019-05-19T05:38:57.744Z,41.73
2019-05-19T05:41:27.140Z,44.65
2019-05-19T05:43:56.762Z,42.00
2019-05-19T05:46:26.309Z,44.10
2019-05-19T05:48:55.762Z,42.98
2019-05-19T05:51:27.162Z,43.83
2019-05-19T05:53:57.364Z,44.45
2019-05-19T05:56:27.864Z,41.63
2019-05-19T05:58:58.137Z,44.67
2019-05-19T06:01:33.757Z,45.17
2019-05-19T06:04:09.721Z,46.48
2019-05-19T06:06:41.579Z,45.52
2019-05-19T06:09:17.303Z,45.98
2019-05-19T06:11:54.748Z,47.23
2019-05-19T06:14:32.433Z,48.60
2019-05-19T06:17:02.158Z,51.02
2019-05-19T06:19:31.538Z,50.25
2019-05-19T06:22:06.444Z,52.62
2019-05-19T06:24:36.376Z,51.65
2019-05-19T06:27:08.052Z,52.08
2019-05-19T06:29:48.200Z,51.95
2019-05-19T06:32:22.602Z,51.95
2019-05-19T06:34:52.052Z,52.50
2019-05-19T06:40:11.303Z,52.20
2019-05-19T06:42:40.788Z,51.30
2019-05-19T06:45:10.684Z,52.23
2019-05-19T06:47:40.017Z,53.15
2019-05-19T06:50:10.966Z,50.98
2019-05-19T06:52:40.348Z,53.50
2019-05-19T06:55:10.845Z,52.17
2019-05-19T06:57:41.124Z,51.68
2019-05-19T07:00:12.024Z,53.15
2019-05-19T07:02:41.684Z,54.58
2019-05-19T07:05:11.206Z,52.25
2019-05-19T07:07:41.217Z,51.40
2019-05-19T07:10:10.782Z,51.85
2019-05-19T07:12:40.183Z,51.73
2019-05-19T07:15:10.329Z,51.83
2019-05-19T07:17:39.682Z,51.80
2019-05-19T07:20:09.528Z,54.00
2019-05-19T07:22:39.101Z,50.88
2019-05-19T07:25:08.878Z,52.13
2019-05-19T07:27:38.831Z,51.58
2019-05-19T07:30:09.203Z,53.78
2019-05-19T07:32:39.840Z,54.25
2019-05-19T07:35:09.658Z,53.33
2019-05-19T07:37:39.005Z,53.10
2019-05-19T07:40:09.631Z,54.15
2019-05-19T07:42:39.331Z,52.35
2019-05-19T07:45:10.772Z,55.83
2019-05-19T07:47:40.505Z,52.05
2019-05-19T07:50:09.916Z,51.18
2019-05-19T07:52:39.258Z,53.52
2019-05-19T07:55:09.098Z,50.65
2019-05-19T07:57:38.425Z,50.67
2019-05-19T08:00:09.150Z,49.65
2019-05-19T08:02:38.757Z,48.25
2019-05-19T08:05:08.378Z,48.85
2019-05-19T08:07:38.065Z,46.55
2019-05-19T08:10:07.838Z,45.75
2019-05-19T08:12:37.210Z,42.23
2019-05-19T08:15:08.441Z,42.93
2019-05-19T08:17:38.069Z,44.50
2019-05-19T08:20:07.851Z,43.65
2019-05-19T08:22:37.418Z,42.33
2019-05-19T08:25:08.466Z,40.23
2019-05-19T08:27:38.136Z,39.63
2019-05-19T08:30:09.032Z,41.05
2019-05-19T08:32:38.725Z,40.95
2019-05-19T08:35:08.403Z,41.83
2019-05-19T08:37:38.005Z,35.58
2019-05-19T08:40:08.068Z,35.03
2019-05-19T08:42:37.411Z,35.05
2019-05-19T08:45:08.807Z,33.60
2019-05-19T08:47:38.256Z,32.95
2019-05-19T08:50:07.928Z,35.65
2019-05-19T08:52:37.327Z,34.23
2019-05-19T08:55:07.116Z,34.73
2019-05-19T08:57:36.835Z,35.58
2019-05-19T09:00:07.021Z,34.73
2019-05-19T09:02:36.429Z,30.72
2019-05-19T09:05:07.240Z,33.58
2019-05-19T09:07:36.641Z,33.30
2019-05-19T09:10:08.006Z,34.03
2019-05-19T09:12:38.138Z,37.15
2019-05-19T09:15:08.762Z,32.83
2019-05-19T09:17:38.100Z,34.43
2019-05-19T09:20:07.870Z,29.87
2019-05-19T09:22:37.208Z,29.48
2019-05-19T09:25:08.626Z,30.00
2019-05-19T09:27:38.259Z,30.00
2019-05-19T09:30:14.140Z,31.05
2019-05-19T09:32:43.803Z,30.80
2019-05-19T09:35:13.831Z,30.68
2019-05-19T09:37:43.462Z,29.27
2019-05-19T09:40:13.264Z,29.65
2019-05-19T09:42:42.907Z,25.70
2019-05-19T09:45:12.938Z,25.17
2019-05-19T09:47:43.010Z,23.95
2019-05-19T09:50:14.335Z,23.47
2019-05-19T09:52:43.695Z,23.42
2019-05-19T09:55:16.114Z,29.90
2019-05-19T09:57:45.451Z,28.77
2019-05-19T10:00:15.420Z,29.02
2019-05-19T10:02:45.041Z,28.12
2019-05-19T10:05:14.865Z,25.60
2019-05-19T10:07:44.194Z,25.48
2019-05-19T10:10:16.863Z,25.32
2019-05-19T10:12:46.271Z,25.60
2019-05-19T10:15:16.147Z,26.23
2019-05-19T10:17:45.848Z,25.12
2019-05-19T10:20:15.792Z,26.48
2019-05-19T10:22:45.368Z,25.43
2019-05-19T10:25:23.211Z,25.92
2019-05-19T10:27:46.441Z,25.62
2019-05-19T10:30:16.282Z,26.48
2019-05-19T10:32:45.859Z,24.43
2019-05-19T10:35:15.719Z,23.92
2019-05-19T10:37:45.329Z,22.00
2019-05-19T10:40:15.123Z,23.75
2019-05-19T10:42:44.909Z,23.60
2019-05-19T10:45:14.832Z,24.07
2019-05-19T10:47:44.266Z,22.82
2019-05-19T10:50:14.063Z,22.70
2019-05-19T10:52:43.661Z,20.82
2019-05-19T10:55:13.387Z,19.60
2019-05-19T10:57:42.984Z,18.40
2019-05-19T11:00:12.804Z,19.15
2019-05-19T11:02:42.159Z,16.17
2019-05-19T11:05:11.925Z,12.88
2019-05-19T11:07:41.595Z,11.53
2019-05-19T11:10:11.406Z,6.45
2019-05-19T11:12:41.719Z,6.60
2019-05-19T11:15:11.639Z,7.20
2019-05-19T11:17:41.016Z,6.67
2019-05-19T11:20:10.484Z,6.55
2019-05-19T11:22:40.199Z,6.92
2019-05-19T11:25:12.128Z,7.05
2019-05-19T11:27:51.169Z,8.28
2019-05-19T11:30:20.917Z,6.72
2019-05-19T11:32:50.785Z,8.20
2019-05-19T11:35:20.797Z,6.75
2019-05-19T11:37:51.692Z,6.20
2019-05-19T11:40:30.528Z,7.00
2019-05-19T11:42:59.873Z,7.35
2019-05-19T11:45:29.383Z,8.45
2019-05-19T11:47:59.318Z,7.50
2019-05-19T11:50:29.021Z,6.83
2019-05-19T11:52:58.347Z,6.50
2019-05-19T11:55:28.074Z,6.90
2019-05-19T11:57:58.613Z,7.40
2019-05-19T12:00:33.938Z,7.62
2019-05-19T12:03:05.095Z,7.50
2019-05-19T12:05:34.674Z,8.25
2019-05-19T12:08:06.390Z,8.25
2019-05-19T12:10:35.999Z,6.67
2019-05-19T12:13:05.667Z,7.67
2019-05-19T12:15:35.141Z,4.97
2019-05-19T12:18:11.363Z,6.75
2019-05-19T12:20:43.453Z,5.65
2019-05-19T12:23:20.652Z,6.08
2019-05-19T12:25:50.559Z,4.72
2019-05-19T12:28:20.011Z,4.30
2019-05-19T12:30:59.183Z,4.55
2019-05-19T12:33:52.462Z,4.78
2019-05-19T12:36:35.703Z,4.95
2019-05-19T12:39:08.088Z,5.40
2019-05-19T12:50:47.714Z,6.28
2019-05-19T12:53:17.125Z,6.87
2019-05-19T12:55:48.266Z,6.22
2019-05-19T12:58:17.950Z,5.33
2019-05-19T13:00:47.627Z,5.58
2019-05-19T13:03:19.397Z,4.67
2019-05-19T13:05:49.106Z,4.50
2019-05-19T13:08:44.211Z,5.25
2019-05-19T13:11:17.548Z,4.33
2019-05-19T13:13:47.061Z,4.35
2019-05-19T13:16:17.943Z,4.70
2019-05-19T13:18:49.201Z,3.58
2019-05-19T13:21:18.832Z,4.28
2019-05-19T13:23:48.551Z,3.90
2019-05-19T13:26:18.757Z,3.20
2019-05-19T13:28:48.486Z,2.40
2019-05-19T13:31:17.868Z,2.92
2019-05-19T13:33:47.180Z,3.00
2019-05-19T13:36:16.819Z,2.45
2019-05-19T13:38:46.143Z,3.33
2019-05-19T13:41:15.736Z,3.20
2019-05-19T13:43:45.152Z,2.92
2019-05-19T13:46:14.498Z,2.70
2019-05-19T13:48:44.232Z,3.05
2019-05-19T13:51:13.536Z,3.60
2019-05-19T13:53:43.258Z,2.98
2019-05-19T13:56:12.956Z,3.40
2019-05-19T13:58:42.360Z,3.83
2019-05-19T14:01:26.257Z,3.77
2019-05-19T14:03:43.146Z,3.80
2019-05-19T14:06:12.471Z,4.40
2019-05-19T14:08:42.075Z,4.47
2019-05-19T14:11:11.664Z,4.75
2019-05-19T14:13:41.299Z,5.12
2019-05-19T14:16:10.912Z,5.67
2019-05-19T14:18:40.504Z,5.12
2019-05-19T14:21:09.865Z,6.78
2019-05-19T14:23:39.260Z,5.85
2019-05-19T14:26:10.048Z,5.22
2019-05-19T14:28:39.647Z,4.80
2019-05-19T14:31:09.329Z,4.72
2019-05-19T14:33:38.645Z,5.20
2019-05-19T14:36:07.992Z,4.70
2019-05-19T14:38:39.019Z,5.50
2019-05-19T14:41:08.672Z,4.90
2019-05-19T14:43:38.179Z,4.95
2019-05-19T14:46:07.511Z,5.42
2019-05-19T14:48:36.822Z,5.60
2019-05-19T14:51:06.412Z,6.67
2019-05-19T14:53:36.078Z,6.97
2019-05-19T14:56:05.674Z,6.55
2019-05-19T14:58:35.243Z,6.03
2019-05-19T15:01:05.115Z,5.83
2019-05-19T15:03:34.694Z,6.50
2019-05-19T15:06:04.151Z,5.40
2019-05-19T15:08:33.531Z,2.60
2019-05-19T15:11:03.111Z,2.05
2019-05-19T15:13:32.793Z,1.77
2019-05-19T15:16:02.534Z,1.70
2019-05-19T15:18:32.836Z,1.20
2019-05-19T15:21:02.454Z,0.88
2019-05-19T15:23:32.110Z,1.07
2019-05-19T15:26:01.832Z,1.10
2019-05-19T15:28:31.185Z,0.85
2019-05-19T15:31:00.844Z,0.90
2019-05-19T15:33:37.665Z,1.00
2019-05-19T15:36:01.503Z,0.70
2019-05-19T15:38:31.189Z,1.10
2019-05-19T15:41:00.622Z,1.20
2019-05-19T15:43:30.261Z,0.90
2019-05-19T15:45:59.915Z,1.00
2019-05-19T15:48:29.518Z,1.00
2019-05-19T15:50:59.145Z,0.90
2019-05-19T15:53:28.471Z,1.05
2019-05-19T15:55:57.809Z,1.00
2019-05-19T15:58:27.127Z,1.00
2019-05-19T16:00:56.805Z,0.90
2019-05-19T16:03:26.462Z,1.10
2019-05-19T16:05:56.076Z,1.10
2019-05-19T16:08:25.563Z,1.17
2019-05-19T16:10:55.200Z,1.30
2019-05-19T16:13:24.796Z,1.10
2019-05-19T16:15:54.433Z,1.45
2019-05-19T16:18:24.058Z,1.50
2019-05-19T16:20:53.371Z,1.92
2019-05-19T16:23:23.784Z,1.80
2019-05-19T16:25:53.083Z,1.60
2019-05-19T16:28:30.229Z,2.15
2019-05-19T16:30:53.731Z,1.62
2019-05-19T16:33:23.300Z,1.87
2019-05-19T16:35:52.706Z,1.72
2019-05-19T16:38:22.148Z,1.95
2019-05-19T16:40:51.549Z,2.20
2019-05-19T16:43:21.289Z,2.25
2019-05-19T16:45:50.868Z,2.22
2019-05-19T16:48:23.281Z,2.30
2019-05-19T16:50:51.842Z,2.30
2019-05-19T16:53:21.261Z,3.20
2019-05-19T16:55:50.939Z,3.45
2019-05-19T16:58:21.804Z,3.42
2019-05-19T17:00:52.876Z,4.17
2019-05-19T17:03:22.564Z,5.10
2019-05-19T17:05:52.195Z,4.72
2019-05-19T17:08:23.255Z,4.90
2019-05-19T17:10:52.594Z,4.70
2019-05-19T17:13:22.328Z,5.65
2019-05-19T17:15:52.034Z,6.08
2019-05-19T17:18:21.679Z,5.60
2019-05-19T17:20:51.362Z,6.03
2019-05-19T17:23:20.713Z,6.28
2019-05-19T17:25:50.046Z,5.87
2019-05-19T17:28:19.491Z,7.45
2019-05-19T17:30:49.153Z,8.15
2019-05-19T17:33:18.738Z,7.95
2019-05-19T17:35:48.332Z,8.73
2019-05-19T17:38:17.734Z,9.93
2019-05-19T17:40:47.146Z,9.98
2019-05-19T17:43:16.790Z,9.53
2019-05-19T17:45:46.914Z,9.68
2019-05-19T17:48:26.175Z,9.05
2019-05-19T17:50:48.825Z,9.05
2019-05-19T17:53:18.281Z,9.03
2019-05-19T17:55:49.887Z,9.33
2019-05-19T17:58:19.740Z,8.75
2019-05-19T18:00:51.015Z,9.63
2019-05-19T18:03:20.538Z,8.48
2019-05-19T18:05:50.213Z,8.75
2019-05-19T18:08:19.528Z,8.55
2019-05-19T18:10:49.180Z,9.95
2019-05-19T18:13:18.828Z,9.68
2019-05-19T18:15:48.681Z,10.80
2019-05-19T18:18:18.989Z,10.72
2019-05-19T18:20:48.427Z,12.60
2019-05-19T18:23:18.181Z,13.43
2019-05-19T18:28:53.146Z,16.50
2019-05-19T18:31:27.245Z,16.50
2019-05-19T18:34:02.691Z,17.23
2019-05-19T18:36:34.500Z,18.85
2019-05-19T18:39:12.489Z,18.77
2019-05-19T18:41:47.464Z,19.60
2019-05-19T18:44:17.102Z,18.98
2019-05-19T18:46:47.116Z,20.52
2019-05-19T18:49:16.724Z,21.77
2019-05-19T18:51:46.215Z,21.80
2019-05-19T18:54:16.578Z,22.60
2019-05-19T18:56:46.255Z,24.02
2019-05-19T18:59:15.720Z,21.85
2019-05-19T19:01:45.335Z,22.37
2019-05-19T19:04:15.909Z,21.87
2019-05-19T19:06:45.429Z,22.80
2019-05-19T19:09:14.763Z,22.80
2019-05-19T19:11:47.783Z,22.55
2019-05-19T19:14:21.406Z,23.52
2019-05-19T19:16:52.196Z,25.25
2019-05-19T19:19:22.068Z,26.30
2019-05-19T19:21:51.772Z,25.97
2019-05-19T19:24:21.264Z,27.07
2019-05-19T19:26:50.849Z,28.60
2019-05-19T19:29:20.269Z,27.22
2019-05-19T19:31:49.677Z,27.00
2019-05-19T19:34:19.534Z,28.32
2019-05-19T19:36:51.294Z,29.67
2019-05-19T19:39:21.278Z,29.35
2019-05-19T19:41:50.672Z,28.87
2019-05-19T19:44:20.263Z,29.75
2019-05-19T19:46:53.535Z,31.33
2019-05-19T19:49:21.093Z,31.35
2019-05-19T19:51:50.426Z,31.93
2019-05-19T19:54:19.739Z,31.68
2019-05-19T19:56:49.354Z,31.17
2019-05-19T19:59:18.823Z,30.92
2019-05-19T20:01:48.412Z,31.70
2019-05-19T20:04:18.044Z,29.37
2019-05-19T20:10:03.149Z,30.43
2019-05-19T20:12:32.503Z,31.05
2019-05-19T20:15:02.260Z,29.50
2019-05-19T20:17:31.670Z,30.88
2019-05-19T20:20:01.352Z,32.08
2019-05-19T20:22:30.981Z,30.52
2019-05-19T20:25:00.666Z,30.97
2019-05-19T20:27:30.196Z,31.17
2019-05-19T20:29:59.590Z,29.23
2019-05-19T20:32:29.170Z,29.30
2019-05-19T20:34:58.495Z,28.42
2019-05-19T20:37:27.835Z,30.00
2019-05-19T20:39:57.507Z,29.67
2019-05-19T20:42:26.962Z,30.30
2019-05-19T20:44:56.632Z,30.10
2019-05-19T20:47:26.314Z,30.65
2019-05-19T20:49:55.725Z,31.45
2019-05-19T20:52:25.384Z,29.35
2019-05-19T20:54:54.782Z,30.82
2019-05-19T21:00:18.705Z,31.23
2019-05-19T21:02:48.055Z,29.70
2019-05-19T21:05:17.727Z,30.52
2019-05-19T21:07:47.323Z,30.00
2019-05-19T21:10:17.098Z,29.98
2019-05-19T21:12:46.425Z,28.67
2019-05-19T21:15:15.870Z,29.67
2019-05-19T21:17:45.201Z,29.52
2019-05-19T21:20:14.921Z,29.60
2019-05-19T21:22:44.499Z,29.52
2019-05-19T21:25:13.883Z,29.87
2019-05-19T21:27:43.307Z,30.35
2019-05-19T21:30:13.220Z,30.52
2019-05-19T21:32:42.624Z,31.50
2019-05-19T21:35:12.284Z,30.35
2019-05-19T21:37:41.634Z,32.00
2019-05-19T21:40:11.099Z,30.40
2019-05-19T21:42:40.449Z,29.40
2019-05-19T21:45:10.386Z,29.60
2019-05-19T21:47:40.069Z,31.12
2019-05-19T21:50:10.287Z,30.05
2019-05-19T21:52:39.617Z,30.43
2019-05-19T21:55:09.302Z,29.45
2019-05-19T21:57:38.988Z,30.70
2019-05-19T22:00:12.383Z,32.63
2019-05-19T22:02:43.396Z,33.50
2019-05-19T22:05:13.043Z,32.25
2019-05-19T22:07:47.307Z,31.70
2019-05-19T22:10:16.758Z,34.40
2019-05-19T22:12:46.356Z,34.90
2019-05-19T22:15:15.803Z,37.83
2019-05-19T22:17:45.142Z,33.30
2019-05-19T22:20:14.573Z,35.17
2019-05-19T22:22:44.139Z,36.00
2019-05-19T22:25:13.608Z,34.70
2019-05-19T22:27:43.185Z,39.27
2019-05-19T22:30:13.002Z,37.65
2019-05-19T22:32:42.855Z,37.42
2019-05-19T22:35:15.231Z,38.67
2019-05-19T22:37:44.553Z,38.15
2019-05-19T22:40:15.116Z,38.63
2019-05-19T22:42:44.431Z,41.92
2019-05-19T22:45:13.906Z,42.45
2019-05-19T22:47:44.308Z,39.40
2019-05-19T22:50:14.743Z,38.20
2019-05-19T22:52:44.340Z,45.83
2019-05-19T22:55:14.015Z,44.10
2019-05-19T22:57:43.596Z,44.73
2019-05-19T23:00:14.871Z,42.05
2019-05-19T23:02:46.049Z,43.80
2019-05-19T23:05:16.126Z,44.55
2019-05-19T23:07:45.438Z,44.67
2019-05-19T23:10:15.522Z,46.42
2019-05-19T23:12:45.143Z,43.15
2019-05-19T23:15:16.611Z,42.45
2019-05-19T23:17:46.008Z,43.42
2019-05-19T23:20:15.696Z,41.60
2019-05-19T23:22:45.107Z,42.73
2019-05-19T23:25:14.656Z,41.53
2019-05-19T23:27:43.995Z,43.23
2019-05-19T23:30:13.703Z,41.90
2019-05-19T23:32:43.366Z,45.67
2019-05-19T23:35:13.120Z,49.30
2019-05-19T23:37:42.712Z,49.73
2019-05-19T23:40:12.290Z,50.43
2019-05-19T23:42:41.612Z,53.42
2019-05-19T23:45:11.134Z,55.50
2019-05-19T23:47:40.752Z,55.45
2019-05-19T23:50:10.802Z,58.42
2019-05-19T23:52:40.220Z,57.48
2019-05-19T23:55:10.253Z,59.10
2019-05-19T23:57:39.971Z,58.17
